aviador You're here:

KOEB Decoded Metar

COLDWATER in MI, USA
Report Time2018-04-24 18:15:00
UTC Time2018-04-24 18:29:52
Flight Rules mvfr MVFR
Wind110° at 07 kt
W.Decomp.*RWY 16: 4.9 kt HW 4.9 kt LCW
RWY 07: 4.9 kt HW 4.9 kt RCW
RWY 04: 1.8 kt HW 6.8 kt RCW
W.Rank110° ranks 20
Current wind is above 110° avg. (5.9)
Visibility9999 m
Phenomena:N/A
Clouds:Overcast 014 Hf
Expected CloudBase > 1,200 ft AGL from Temp-Dew spread
Ceiling1,400 ft
Temp13°C (ISA -0)
Dew Point10°C (82% RH)
AAT10.5°C
QNH1017 hPa
Density Alt981 ft
Elevation958 ft
Report Wrong Elevation
Raw Report
KOEB 241815Z AUTO 11007KT 10SM OVC014 13/10 A3002 RMK AO2
T01260099=

Extra information for KOEB:More info

Metar Taf Metar & Taf Last 4 Metars F.Rules Stats Wind Profile Meteogram Temp Stats Airport Information Weather charts Add Link Nearby VenuesMetar ALERT Operation Metar Decoded Social comments

AIRNAV info for KOEB